sensor_id;sensor_type;location;lat;lon;timestamp;P1;durP1;ratioP1;P2;durP2;ratioP2
15833;SDS011;8017;50.812;4.934;2022-09-09T00:02:46;1.17;;;0.70;;
15833;SDS011;8017;50.812;4.934;2022-09-09T00:05:57;3.03;;;0.90;;
15833;SDS011;8017;50.812;4.934;2022-09-09T00:09:08;1.27;;;0.87;;
15833;SDS011;8017;50.812;4.934;2022-09-09T00:12:15;2.77;;;0.80;;
15833;SDS011;8017;50.812;4.934;2022-09-09T00:15:29;2.80;;;1.00;;
15833;SDS011;8017;50.812;4.934;2022-09-09T00:18:45;2.47;;;1.20;;
15833;SDS011;8017;50.812;4.934;2022-09-09T00:21:55;4.07;;;1.20;;
15833;SDS011;8017;50.812;4.934;2022-09-09T00:25:09;2.53;;;1.07;;
15833;SDS011;8017;50.812;4.934;2022-09-09T00:28:13;2.83;;;1.00;;
15833;SDS011;8017;50.812;4.934;2022-09-09T00:31:20;3.87;;;1.10;;
15833;SDS011;8017;50.812;4.934;2022-09-09T00:34:26;3.03;;;1.30;;
15833;SDS011;8017;50.812;4.934;2022-09-09T00:37:29;2.67;;;1.50;;
15833;SDS011;8017;50.812;4.934;2022-09-09T00:40:35;4.07;;;1.70;;
15833;SDS011;8017;50.812;4.934;2022-09-09T00:43:42;3.70;;;1.60;;
15833;SDS011;8017;50.812;4.934;2022-09-09T00:46:55;5.77;;;1.50;;
15833;SDS011;8017;50.812;4.934;2022-09-09T00:50:09;4.10;;;1.50;;
15833;SDS011;8017;50.812;4.934;2022-09-09T00:53:28;3.20;;;1.30;;
15833;SDS011;8017;50.812;4.934;2022-09-09T00:56:37;3.87;;;1.80;;
15833;SDS011;8017;50.812;4.934;2022-09-09T00:59:47;3.17;;;1.30;;
15833;SDS011;8017;50.812;4.934;2022-09-09T01:06:26;3.87;;;1.57;;
15833;SDS011;8017;50.812;4.934;2022-09-09T01:09:32;3.77;;;1.77;;
15833;SDS011;8017;50.812;4.934;2022-09-09T01:12:43;3.83;;;1.80;;
15833;SDS011;8017;50.812;4.934;2022-09-09T01:15:48;5.30;;;1.53;;
15833;SDS011;8017;50.812;4.934;2022-09-09T01:18:54;6.07;;;1.80;;
15833;SDS011;8017;50.812;4.934;2022-09-09T01:22:00;3.80;;;2.00;;
15833;SDS011;8017;50.812;4.934;2022-09-09T01:25:18;6.37;;;2.00;;
15833;SDS011;8017;50.812;4.934;2022-09-09T01:28:27;7.77;;;2.07;;
15833;SDS011;8017;50.812;4.934;2022-09-09T01:31:31;5.57;;;2.03;;
15833;SDS011;8017;50.812;4.934;2022-09-09T01:34:38;11.57;;;1.93;;
15833;SDS011;8017;50.812;4.934;2022-09-09T01:37:41;6.07;;;1.50;;
15833;SDS011;8017;50.812;4.934;2022-09-09T01:40:43;7.17;;;1.60;;
15833;SDS011;8017;50.812;4.934;2022-09-09T01:43:46;4.67;;;2.00;;
15833;SDS011;8017;50.812;4.934;2022-09-09T01:46:49;5.57;;;2.30;;
15833;SDS011;8017;50.812;4.934;2022-09-09T01:49:51;5.70;;;2.40;;
15833;SDS011;8017;50.812;4.934;2022-09-09T01:52:53;7.00;;;2.60;;
15833;SDS011;8017;50.812;4.934;2022-09-09T01:56:01;6.00;;;2.40;;
15833;SDS011;8017;50.812;4.934;2022-09-09T01:59:18;5.97;;;2.33;;
15833;SDS011;8017;50.812;4.934;2022-09-09T02:02:30;6.47;;;2.30;;
15833;SDS011;8017;50.812;4.934;2022-09-09T02:05:36;5.77;;;1.93;;
15833;SDS011;8017;50.812;4.934;2022-09-09T02:08:40;4.77;;;1.70;;
15833;SDS011;8017;50.812;4.934;2022-09-09T02:11:44;7.50;;;2.10;;
15833;SDS011;8017;50.812;4.934;2022-09-09T02:14:50;5.67;;;1.90;;
15833;SDS011;8017;50.812;4.934;2022-09-09T02:17:57;6.00;;;2.00;;
15833;SDS011;8017;50.812;4.934;2022-09-09T02:20:59;4.97;;;2.47;;
15833;SDS011;8017;50.812;4.934;2022-09-09T02:24:04;4.57;;;2.10;;
15833;SDS011;8017;50.812;4.934;2022-09-09T02:27:09;4.57;;;2.13;;
15833;SDS011;8017;50.812;4.934;2022-09-09T02:30:14;5.60;;;2.07;;
15833;SDS011;8017;50.812;4.934;2022-09-09T02:33:16;8.83;;;2.63;;
15833;SDS011;8017;50.812;4.934;2022-09-09T02:36:18;10.80;;;3.40;;
15833;SDS011;8017;50.812;4.934;2022-09-09T02:39:23;8.43;;;2.83;;
15833;SDS011;8017;50.812;4.934;2022-09-09T02:42:25;6.60;;;2.53;;
15833;SDS011;8017;50.812;4.934;2022-09-09T02:45:31;5.87;;;2.90;;
15833;SDS011;8017;50.812;4.934;2022-09-09T02:48:40;4.13;;;2.57;;
15833;SDS011;8017;50.812;4.934;2022-09-09T02:51:51;7.57;;;2.67;;
15833;SDS011;8017;50.812;4.934;2022-09-09T02:54:57;5.27;;;2.53;;
15833;SDS011;8017;50.812;4.934;2022-09-09T02:58:06;7.93;;;2.93;;
15833;SDS011;8017;50.812;4.934;2022-09-09T03:01:12;6.27;;;2.47;;
15833;SDS011;8017;50.812;4.934;2022-09-09T03:04:14;6.30;;;2.37;;
15833;SDS011;8017;50.812;4.934;2022-09-09T03:07:17;4.63;;;1.93;;
15833;SDS011;8017;50.812;4.934;2022-09-09T03:10:18;7.67;;;2.47;;
15833;SDS011;8017;50.812;4.934;2022-09-09T03:13:20;7.50;;;2.97;;
15833;SDS011;8017;50.812;4.934;2022-09-09T03:16:23;4.10;;;2.03;;
15833;SDS011;8017;50.812;4.934;2022-09-09T03:19:25;10.57;;;2.50;;
15833;SDS011;8017;50.812;4.934;2022-09-09T03:22:28;8.50;;;2.43;;
15833;SDS011;8017;50.812;4.934;2022-09-09T03:25:30;6.57;;;2.30;;
15833;SDS011;8017;50.812;4.934;2022-09-09T03:28:33;5.37;;;2.47;;
15833;SDS011;8017;50.812;4.934;2022-09-09T03:31:36;9.83;;;2.57;;
15833;SDS011;8017;50.812;4.934;2022-09-09T03:34:38;8.33;;;2.00;;
15833;SDS011;8017;50.812;4.934;2022-09-09T03:37:40;8.20;;;2.33;;
15833;SDS011;8017;50.812;4.934;2022-09-09T03:40:48;5.23;;;2.20;;
15833;SDS011;8017;50.812;4.934;2022-09-09T03:43:51;9.43;;;2.53;;
15833;SDS011;8017;50.812;4.934;2022-09-09T03:46:55;6.77;;;2.00;;
15833;SDS011;8017;50.812;4.934;2022-09-09T03:49:56;8.90;;;2.30;;
15833;SDS011;8017;50.812;4.934;2022-09-09T03:52:58;9.40;;;2.37;;
15833;SDS011;8017;50.812;4.934;2022-09-09T03:56:00;6.70;;;1.93;;
15833;SDS011;8017;50.812;4.934;2022-09-09T03:59:03;8.23;;;2.10;;
15833;SDS011;8017;50.812;4.934;2022-09-09T04:02:06;5.80;;;2.10;;
15833;SDS011;8017;50.812;4.934;2022-09-09T04:05:09;7.23;;;2.10;;
15833;SDS011;8017;50.812;4.934;2022-09-09T04:08:10;5.13;;;1.87;;
15833;SDS011;8017;50.812;4.934;2022-09-09T04:11:12;11.27;;;2.07;;
15833;SDS011;8017;50.812;4.934;2022-09-09T04:14:15;4.80;;;2.37;;
15833;SDS011;8017;50.812;4.934;2022-09-09T04:17:18;6.57;;;1.90;;
15833;SDS011;8017;50.812;4.934;2022-09-09T04:20:20;8.23;;;2.70;;
15833;SDS011;8017;50.812;4.934;2022-09-09T04:23:23;6.90;;;2.07;;
15833;SDS011;8017;50.812;4.934;2022-09-09T04:26:27;3.63;;;1.93;;
15833;SDS011;8017;50.812;4.934;2022-09-09T04:29:29;8.50;;;2.43;;
15833;SDS011;8017;50.812;4.934;2022-09-09T04:32:33;7.27;;;2.40;;
15833;SDS011;8017;50.812;4.934;2022-09-09T04:35:36;8.20;;;2.17;;
15833;SDS011;8017;50.812;4.934;2022-09-09T04:38:39;5.10;;;1.93;;
15833;SDS011;8017;50.812;4.934;2022-09-09T04:41:41;8.93;;;3.00;;
15833;SDS011;8017;50.812;4.934;2022-09-09T04:44:43;6.53;;;2.50;;
15833;SDS011;8017;50.812;4.934;2022-09-09T04:47:46;7.57;;;2.47;;
15833;SDS011;8017;50.812;4.934;2022-09-09T04:50:55;6.87;;;2.50;;
15833;SDS011;8017;50.812;4.934;2022-09-09T04:53:58;13.07;;;2.70;;
15833;SDS011;8017;50.812;4.934;2022-09-09T04:57:00;11.20;;;3.17;;
15833;SDS011;8017;50.812;4.934;2022-09-09T05:00:02;6.47;;;2.83;;
15833;SDS011;8017;50.812;4.934;2022-09-09T05:03:06;8.00;;;2.30;;
15833;SDS011;8017;50.812;4.934;2022-09-09T05:06:09;8.10;;;2.63;;
15833;SDS011;8017;50.812;4.934;2022-09-09T05:09:12;10.07;;;2.97;;
15833;SDS011;8017;50.812;4.934;2022-09-09T05:12:14;9.53;;;2.83;;
15833;SDS011;8017;50.812;4.934;2022-09-09T05:15:17;7.90;;;2.70;;
15833;SDS011;8017;50.812;4.934;2022-09-09T05:18:22;10.00;;;2.90;;
15833;SDS011;8017;50.812;4.934;2022-09-09T05:21:24;13.10;;;3.40;;
15833;SDS011;8017;50.812;4.934;2022-09-09T05:24:26;9.83;;;3.03;;
15833;SDS011;8017;50.812;4.934;2022-09-09T05:27:28;11.13;;;2.83;;
15833;SDS011;8017;50.812;4.934;2022-09-09T05:30:31;11.73;;;2.57;;
15833;SDS011;8017;50.812;4.934;2022-09-09T05:33:35;9.17;;;3.03;;
15833;SDS011;8017;50.812;4.934;2022-09-09T05:36:40;10.20;;;2.60;;
15833;SDS011;8017;50.812;4.934;2022-09-09T05:39:42;8.43;;;2.43;;
15833;SDS011;8017;50.812;4.934;2022-09-09T05:42:44;9.40;;;2.87;;
15833;SDS011;8017;50.812;4.934;2022-09-09T05:45:46;8.80;;;2.33;;
15833;SDS011;8017;50.812;4.934;2022-09-09T05:48:50;85.90;;;13.13;;
15833;SDS011;8017;50.812;4.934;2022-09-09T05:51:53;12.00;;;2.83;;
15833;SDS011;8017;50.812;4.934;2022-09-09T05:54:55;6.90;;;2.40;;
15833;SDS011;8017;50.812;4.934;2022-09-09T05:57:57;14.83;;;3.20;;
15833;SDS011;8017;50.812;4.934;2022-09-09T06:01:02;8.50;;;2.57;;
15833;SDS011;8017;50.812;4.934;2022-09-09T06:04:08;9.07;;;3.80;;
15833;SDS011;8017;50.812;4.934;2022-09-09T06:07:09;8.57;;;2.60;;
15833;SDS011;8017;50.812;4.934;2022-09-09T06:10:11;8.80;;;2.40;;
15833;SDS011;8017;50.812;4.934;2022-09-09T06:13:14;7.03;;;2.27;;
15833;SDS011;8017;50.812;4.934;2022-09-09T06:16:17;7.30;;;2.47;;
15833;SDS011;8017;50.812;4.934;2022-09-09T06:19:21;9.63;;;2.03;;
15833;SDS011;8017;50.812;4.934;2022-09-09T06:22:26;9.50;;;2.50;;
15833;SDS011;8017;50.812;4.934;2022-09-09T06:25:28;9.87;;;2.30;;
15833;SDS011;8017;50.812;4.934;2022-09-09T06:28:30;8.80;;;2.27;;
15833;SDS011;8017;50.812;4.934;2022-09-09T06:31:33;9.47;;;2.30;;
15833;SDS011;8017;50.812;4.934;2022-09-09T06:34:38;8.50;;;2.30;;
15833;SDS011;8017;50.812;4.934;2022-09-09T06:37:40;7.40;;;2.10;;
15833;SDS011;8017;50.812;4.934;2022-09-09T06:40:50;10.67;;;2.20;;
15833;SDS011;8017;50.812;4.934;2022-09-09T06:43:55;8.40;;;2.27;;
15833;SDS011;8017;50.812;4.934;2022-09-09T06:46:57;7.20;;;1.60;;
15833;SDS011;8017;50.812;4.934;2022-09-09T06:50:01;9.13;;;2.03;;
15833;SDS011;8017;50.812;4.934;2022-09-09T06:53:03;10.73;;;2.27;;
15833;SDS011;8017;50.812;4.934;2022-09-09T06:56:17;9.00;;;2.33;;
15833;SDS011;8017;50.812;4.934;2022-09-09T06:59:21;10.57;;;2.63;;
15833;SDS011;8017;50.812;4.934;2022-09-09T07:02:23;11.03;;;2.50;;
15833;SDS011;8017;50.812;4.934;2022-09-09T07:05:27;6.50;;;2.10;;
15833;SDS011;8017;50.812;4.934;2022-09-09T07:08:28;10.77;;;2.37;;
15833;SDS011;8017;50.812;4.934;2022-09-09T07:11:32;7.10;;;2.07;;
15833;SDS011;8017;50.812;4.934;2022-09-09T07:14:35;11.20;;;2.63;;
15833;SDS011;8017;50.812;4.934;2022-09-09T07:17:37;9.00;;;1.87;;
15833;SDS011;8017;50.812;4.934;2022-09-09T07:20:40;7.77;;;2.07;;
15833;SDS011;8017;50.812;4.934;2022-09-09T07:23:42;9.03;;;2.17;;
15833;SDS011;8017;50.812;4.934;2022-09-09T07:26:44;10.40;;;2.00;;
15833;SDS011;8017;50.812;4.934;2022-09-09T07:29:46;11.87;;;2.87;;
15833;SDS011;8017;50.812;4.934;2022-09-09T07:32:50;9.77;;;2.30;;
15833;SDS011;8017;50.812;4.934;2022-09-09T07:35:53;6.63;;;2.23;;
15833;SDS011;8017;50.812;4.934;2022-09-09T07:39:04;6.93;;;2.10;;
15833;SDS011;8017;50.812;4.934;2022-09-09T07:42:06;9.20;;;2.37;;
15833;SDS011;8017;50.812;4.934;2022-09-09T07:45:09;196.60;;;13.57;;
15833;SDS011;8017;50.812;4.934;2022-09-09T07:48:11;107.50;;;9.00;;
15833;SDS011;8017;50.812;4.934;2022-09-09T07:51:16;236.97;;;14.23;;
15833;SDS011;8017;50.812;4.934;2022-09-09T07:54:19;19.17;;;3.07;;
15833;SDS011;8017;50.812;4.934;2022-09-09T07:57:23;78.77;;;5.03;;
15833;SDS011;8017;50.812;4.934;2022-09-09T08:00:25;10.03;;;2.50;;
15833;SDS011;8017;50.812;4.934;2022-09-09T08:03:28;8.20;;;1.90;;
15833;SDS011;8017;50.812;4.934;2022-09-09T08:06:33;101.60;;;6.97;;
15833;SDS011;8017;50.812;4.934;2022-09-09T08:09:37;488.17;;;30.33;;
15833;SDS011;8017;50.812;4.934;2022-09-09T08:12:39;555.63;;;38.07;;
15833;SDS011;8017;50.812;4.934;2022-09-09T08:15:41;101.43;;;7.53;;
15833;SDS011;8017;50.812;4.934;2022-09-09T08:18:44;77.27;;;6.47;;
15833;SDS011;8017;50.812;4.934;2022-09-09T08:21:48;139.83;;;8.93;;
15833;SDS011;8017;50.812;4.934;2022-09-09T08:24:50;125.97;;;9.37;;
15833;SDS011;8017;50.812;4.934;2022-09-09T08:27:52;96.57;;;6.87;;
15833;SDS011;8017;50.812;4.934;2022-09-09T08:30:54;11.47;;;2.53;;
15833;SDS011;8017;50.812;4.934;2022-09-09T08:33:56;106.33;;;6.37;;
15833;SDS011;8017;50.812;4.934;2022-09-09T08:37:01;187.37;;;10.30;;
15833;SDS011;8017;50.812;4.934;2022-09-09T08:40:04;53.30;;;4.73;;
15833;SDS011;8017;50.812;4.934;2022-09-09T08:43:06;28.43;;;3.23;;
15833;SDS011;8017;50.812;4.934;2022-09-09T08:46:09;19.83;;;2.43;;
15833;SDS011;8017;50.812;4.934;2022-09-09T08:49:24;9.23;;;2.40;;
15833;SDS011;8017;50.812;4.934;2022-09-09T08:52:59;8.03;;;1.67;;
15833;SDS011;8017;50.812;4.934;2022-09-09T08:56:07;8.10;;;1.90;;
15833;SDS011;8017;50.812;4.934;2022-09-09T08:59:13;78.60;;;5.80;;
15833;SDS011;8017;50.812;4.934;2022-09-09T09:02:21;170.00;;;10.10;;
15833;SDS011;8017;50.812;4.934;2022-09-09T09:05:28;184.23;;;10.60;;
15833;SDS011;8017;50.812;4.934;2022-09-09T09:08:39;222.77;;;13.30;;
15833;SDS011;8017;50.812;4.934;2022-09-09T09:11:46;69.77;;;5.60;;
15833;SDS011;8017;50.812;4.934;2022-09-09T09:14:51;267.63;;;17.87;;
15833;SDS011;8017;50.812;4.934;2022-09-09T09:17:55;197.03;;;11.00;;
15833;SDS011;8017;50.812;4.934;2022-09-09T09:20:59;84.33;;;5.17;;
15833;SDS011;8017;50.812;4.934;2022-09-09T09:24:11;281.90;;;16.80;;
15833;SDS011;8017;50.812;4.934;2022-09-09T09:27:21;14.77;;;2.27;;
15833;SDS011;8017;50.812;4.934;2022-09-09T09:30:34;10.40;;;2.10;;
15833;SDS011;8017;50.812;4.934;2022-09-09T09:33:44;8.67;;;1.83;;
15833;SDS011;8017;50.812;4.934;2022-09-09T09:36:52;15.23;;;2.80;;
15833;SDS011;8017;50.812;4.934;2022-09-09T09:40:06;11.90;;;2.37;;
15833;SDS011;8017;50.812;4.934;2022-09-09T09:43:16;59.03;;;5.63;;
15833;SDS011;8017;50.812;4.934;2022-09-09T09:46:23;10.03;;;2.10;;
15833;SDS011;8017;50.812;4.934;2022-09-09T09:49:26;115.23;;;8.90;;
15833;SDS011;8017;50.812;4.934;2022-09-09T09:52:29;7.00;;;2.00;;
15833;SDS011;8017;50.812;4.934;2022-09-09T09:55:34;262.37;;;17.20;;
15833;SDS011;8017;50.812;4.934;2022-09-09T09:58:38;110.80;;;6.30;;
15833;SDS011;8017;50.812;4.934;2022-09-09T10:01:51;7.97;;;2.13;;
15833;SDS011;8017;50.812;4.934;2022-09-09T10:05:00;28.23;;;3.10;;
15833;SDS011;8017;50.812;4.934;2022-09-09T10:08:05;32.83;;;3.80;;
15833;SDS011;8017;50.812;4.934;2022-09-09T10:11:22;46.70;;;4.50;;
15833;SDS011;8017;50.812;4.934;2022-09-09T10:14:38;43.43;;;3.83;;
15833;SDS011;8017;50.812;4.934;2022-09-09T10:17:47;9.43;;;3.10;;
15833;SDS011;8017;50.812;4.934;2022-09-09T10:21:00;11.40;;;2.43;;
15833;SDS011;8017;50.812;4.934;2022-09-09T10:27:56;16.40;;;2.97;;
15833;SDS011;8017;50.812;4.934;2022-09-09T10:31:15;21.83;;;3.00;;
15833;SDS011;8017;50.812;4.934;2022-09-09T10:34:26;11.33;;;2.50;;
15833;SDS011;8017;50.812;4.934;2022-09-09T10:37:52;6.77;;;2.43;;
15833;SDS011;8017;50.812;4.934;2022-09-09T10:41:19;6.37;;;2.07;;
15833;SDS011;8017;50.812;4.934;2022-09-09T10:44:39;6.10;;;1.90;;
15833;SDS011;8017;50.812;4.934;2022-09-09T10:48:01;5.27;;;1.93;;
15833;SDS011;8017;50.812;4.934;2022-09-09T10:51:22;6.60;;;2.33;;
15833;SDS011;8017;50.812;4.934;2022-09-09T10:54:31;6.27;;;2.30;;
15833;SDS011;8017;50.812;4.934;2022-09-09T10:57:39;7.77;;;2.50;;
15833;SDS011;8017;50.812;4.934;2022-09-09T11:00:45;6.37;;;2.23;;
15833;SDS011;8017;50.812;4.934;2022-09-09T11:03:52;6.53;;;2.10;;
15833;SDS011;8017;50.812;4.934;2022-09-09T11:06:58;7.97;;;2.53;;
15833;SDS011;8017;50.812;4.934;2022-09-09T11:10:12;8.57;;;2.77;;
15833;SDS011;8017;50.812;4.934;2022-09-09T11:13:24;5.53;;;2.10;;
15833;SDS011;8017;50.812;4.934;2022-09-09T11:16:33;6.80;;;2.23;;
15833;SDS011;8017;50.812;4.934;2022-09-09T11:19:42;9.30;;;2.60;;
15833;SDS011;8017;50.812;4.934;2022-09-09T11:22:46;7.73;;;2.30;;
15833;SDS011;8017;50.812;4.934;2022-09-09T11:25:54;7.40;;;2.73;;
15833;SDS011;8017;50.812;4.934;2022-09-09T11:29:05;6.50;;;2.27;;
15833;SDS011;8017;50.812;4.934;2022-09-09T11:32:27;7.60;;;2.00;;
15833;SDS011;8017;50.812;4.934;2022-09-09T11:35:55;6.60;;;1.80;;
15833;SDS011;8017;50.812;4.934;2022-09-09T11:39:07;4.17;;;1.50;;
15833;SDS011;8017;50.812;4.934;2022-09-09T11:42:30;5.40;;;1.60;;
15833;SDS011;8017;50.812;4.934;2022-09-09T11:45:31;7.13;;;2.10;;
15833;SDS011;8017;50.812;4.934;2022-09-09T11:52:37;5.37;;;1.87;;
15833;SDS011;8017;50.812;4.934;2022-09-09T11:55:42;5.83;;;1.87;;
15833;SDS011;8017;50.812;4.934;2022-09-09T11:58:53;7.63;;;1.80;;
15833;SDS011;8017;50.812;4.934;2022-09-09T12:01:57;6.93;;;2.30;;
15833;SDS011;8017;50.812;4.934;2022-09-09T12:05:02;6.07;;;1.90;;
15833;SDS011;8017;50.812;4.934;2022-09-09T12:08:10;3.07;;;1.70;;
15833;SDS011;8017;50.812;4.934;2022-09-09T12:11:25;5.53;;;1.63;;
15833;SDS011;8017;50.812;4.934;2022-09-09T12:14:34;6.37;;;1.43;;
15833;SDS011;8017;50.812;4.934;2022-09-09T12:17:41;6.43;;;1.60;;
15833;SDS011;8017;50.812;4.934;2022-09-09T12:20:50;4.80;;;1.73;;
15833;SDS011;8017;50.812;4.934;2022-09-09T12:24:00;3.87;;;1.40;;
15833;SDS011;8017;50.812;4.934;2022-09-09T12:27:11;5.63;;;1.33;;
15833;SDS011;8017;50.812;4.934;2022-09-09T12:30:19;3.63;;;1.37;;
15833;SDS011;8017;50.812;4.934;2022-09-09T12:33:23;6.83;;;1.50;;
15833;SDS011;8017;50.812;4.934;2022-09-09T12:36:27;7.50;;;2.20;;
15833;SDS011;8017;50.812;4.934;2022-09-09T12:39:34;42.57;;;3.73;;
15833;SDS011;8017;50.812;4.934;2022-09-09T12:42:42;40.00;;;3.50;;
15833;SDS011;8017;50.812;4.934;2022-09-09T12:45:44;84.77;;;6.17;;
15833;SDS011;8017;50.812;4.934;2022-09-09T12:48:46;130.37;;;8.53;;
15833;SDS011;8017;50.812;4.934;2022-09-09T12:51:48;45.20;;;4.33;;
15833;SDS011;8017;50.812;4.934;2022-09-09T12:54:52;68.43;;;4.63;;
15833;SDS011;8017;50.812;4.934;2022-09-09T12:57:54;35.20;;;3.43;;
15833;SDS011;8017;50.812;4.934;2022-09-09T13:00:59;201.07;;;11.43;;
15833;SDS011;8017;50.812;4.934;2022-09-09T13:04:15;171.93;;;11.00;;
15833;SDS011;8017;50.812;4.934;2022-09-09T13:07:22;266.30;;;15.20;;
15833;SDS011;8017;50.812;4.934;2022-09-09T13:10:27;476.93;;;28.30;;
15833;SDS011;8017;50.812;4.934;2022-09-09T13:13:34;190.80;;;12.53;;
15833;SDS011;8017;50.812;4.934;2022-09-09T13:16:37;133.03;;;9.27;;
15833;SDS011;8017;50.812;4.934;2022-09-09T13:19:44;343.13;;;20.37;;
15833;SDS011;8017;50.812;4.934;2022-09-09T13:22:47;123.20;;;6.87;;
15833;SDS011;8017;50.812;4.934;2022-09-09T13:25:55;35.87;;;3.43;;
15833;SDS011;8017;50.812;4.934;2022-09-09T13:29:14;363.63;;;23.43;;
15833;SDS011;8017;50.812;4.934;2022-09-09T13:32:19;91.97;;;6.93;;
15833;SDS011;8017;50.812;4.934;2022-09-09T13:35:22;91.03;;;5.70;;
15833;SDS011;8017;50.812;4.934;2022-09-09T13:38:27;157.47;;;8.20;;
15833;SDS011;8017;50.812;4.934;2022-09-09T13:41:36;243.53;;;14.83;;
15833;SDS011;8017;50.812;4.934;2022-09-09T13:44:45;255.17;;;15.13;;
15833;SDS011;8017;50.812;4.934;2022-09-09T13:47:50;82.70;;;5.30;;
15833;SDS011;8017;50.812;4.934;2022-09-09T13:50:59;110.83;;;7.10;;
15833;SDS011;8017;50.812;4.934;2022-09-09T13:54:03;166.83;;;11.73;;
15833;SDS011;8017;50.812;4.934;2022-09-09T13:57:15;11.27;;;1.63;;
15833;SDS011;8017;50.812;4.934;2022-09-09T14:00:19;173.63;;;10.20;;
15833;SDS011;8017;50.812;4.934;2022-09-09T14:03:21;22.23;;;2.20;;
15833;SDS011;8017;50.812;4.934;2022-09-09T14:06:23;74.47;;;5.63;;
15833;SDS011;8017;50.812;4.934;2022-09-09T14:09:25;57.03;;;4.80;;
15833;SDS011;8017;50.812;4.934;2022-09-09T14:12:29;127.23;;;9.33;;
15833;SDS011;8017;50.812;4.934;2022-09-09T14:15:31;47.07;;;4.23;;
15833;SDS011;8017;50.812;4.934;2022-09-09T14:18:33;48.80;;;3.93;;
15833;SDS011;8017;50.812;4.934;2022-09-09T14:21:35;156.90;;;9.70;;
15833;SDS011;8017;50.812;4.934;2022-09-09T14:24:37;81.57;;;4.77;;
15833;SDS011;8017;50.812;4.934;2022-09-09T14:27:44;67.03;;;4.57;;
15833;SDS011;8017;50.812;4.934;2022-09-09T14:30:46;49.00;;;2.90;;
15833;SDS011;8017;50.812;4.934;2022-09-09T14:33:48;42.53;;;4.23;;
15833;SDS011;8017;50.812;4.934;2022-09-09T14:36:52;16.50;;;1.70;;
15833;SDS011;8017;50.812;4.934;2022-09-09T14:39:54;47.03;;;3.40;;
15833;SDS011;8017;50.812;4.934;2022-09-09T14:42:58;6.83;;;1.60;;
15833;SDS011;8017;50.812;4.934;2022-09-09T14:46:04;9.70;;;1.80;;
15833;SDS011;8017;50.812;4.934;2022-09-09T14:49:06;6.77;;;1.40;;
15833;SDS011;8017;50.812;4.934;2022-09-09T14:52:10;4.77;;;1.50;;
15833;SDS011;8017;50.812;4.934;2022-09-09T14:55:12;3.90;;;1.27;;
15833;SDS011;8017;50.812;4.934;2022-09-09T14:58:16;6.77;;;1.33;;
15833;SDS011;8017;50.812;4.934;2022-09-09T15:01:18;2.50;;;1.10;;
15833;SDS011;8017;50.812;4.934;2022-09-09T15:04:22;2.40;;;1.10;;
15833;SDS011;8017;50.812;4.934;2022-09-09T15:07:24;2.70;;;1.00;;
15833;SDS011;8017;50.812;4.934;2022-09-09T15:10:28;5.37;;;1.37;;
15833;SDS011;8017;50.812;4.934;2022-09-09T15:13:33;4.93;;;1.23;;
15833;SDS011;8017;50.812;4.934;2022-09-09T15:16:37;3.47;;;1.50;;
15833;SDS011;8017;50.812;4.934;2022-09-09T15:19:40;4.67;;;1.07;;
15833;SDS011;8017;50.812;4.934;2022-09-09T15:22:42;2.07;;;1.20;;
15833;SDS011;8017;50.812;4.934;2022-09-09T15:25:51;3.23;;;1.20;;
15833;SDS011;8017;50.812;4.934;2022-09-09T15:28:54;3.93;;;1.53;;
15833;SDS011;8017;50.812;4.934;2022-09-09T15:31:59;5.03;;;1.27;;
15833;SDS011;8017;50.812;4.934;2022-09-09T15:35:01;4.93;;;1.57;;
15833;SDS011;8017;50.812;4.934;2022-09-09T15:38:03;4.00;;;1.40;;
15833;SDS011;8017;50.812;4.934;2022-09-09T15:41:05;4.77;;;1.03;;
15833;SDS011;8017;50.812;4.934;2022-09-09T15:44:09;4.70;;;1.30;;
15833;SDS011;8017;50.812;4.934;2022-09-09T15:47:12;6.00;;;1.40;;
15833;SDS011;8017;50.812;4.934;2022-09-09T15:50:15;4.67;;;1.20;;
15833;SDS011;8017;50.812;4.934;2022-09-09T15:53:17;3.83;;;1.30;;
15833;SDS011;8017;50.812;4.934;2022-09-09T15:56:21;4.03;;;1.50;;
15833;SDS011;8017;50.812;4.934;2022-09-09T15:59:25;4.57;;;1.20;;
15833;SDS011;8017;50.812;4.934;2022-09-09T16:02:28;3.90;;;1.70;;
15833;SDS011;8017;50.812;4.934;2022-09-09T16:05:31;2.80;;;1.07;;
15833;SDS011;8017;50.812;4.934;2022-09-09T16:08:34;6.07;;;1.20;;
15833;SDS011;8017;50.812;4.934;2022-09-09T16:11:37;3.33;;;1.23;;
15833;SDS011;8017;50.812;4.934;2022-09-09T16:14:41;3.70;;;1.40;;
15833;SDS011;8017;50.812;4.934;2022-09-09T16:17:45;3.80;;;1.23;;
15833;SDS011;8017;50.812;4.934;2022-09-09T16:20:52;2.10;;;1.03;;
15833;SDS011;8017;50.812;4.934;2022-09-09T16:23:56;3.53;;;1.40;;
15833;SDS011;8017;50.812;4.934;2022-09-09T16:27:00;3.73;;;1.33;;
15833;SDS011;8017;50.812;4.934;2022-09-09T16:30:03;3.53;;;1.20;;
15833;SDS011;8017;50.812;4.934;2022-09-09T16:33:06;3.37;;;1.17;;
15833;SDS011;8017;50.812;4.934;2022-09-09T16:36:08;3.80;;;1.53;;
15833;SDS011;8017;50.812;4.934;2022-09-09T16:39:12;4.27;;;1.30;;
15833;SDS011;8017;50.812;4.934;2022-09-09T16:42:16;4.40;;;1.30;;
15833;SDS011;8017;50.812;4.934;2022-09-09T16:45:19;2.93;;;1.20;;
15833;SDS011;8017;50.812;4.934;2022-09-09T16:48:22;5.30;;;1.23;;
15833;SDS011;8017;50.812;4.934;2022-09-09T16:51:24;5.07;;;1.27;;
15833;SDS011;8017;50.812;4.934;2022-09-09T16:54:27;5.03;;;1.27;;
15833;SDS011;8017;50.812;4.934;2022-09-09T16:57:29;4.43;;;1.47;;
15833;SDS011;8017;50.812;4.934;2022-09-09T17:00:33;3.80;;;1.50;;
15833;SDS011;8017;50.812;4.934;2022-09-09T17:03:35;4.90;;;1.50;;
15833;SDS011;8017;50.812;4.934;2022-09-09T17:06:37;4.50;;;1.27;;
15833;SDS011;8017;50.812;4.934;2022-09-09T17:09:39;5.07;;;1.60;;
15833;SDS011;8017;50.812;4.934;2022-09-09T17:12:41;2.90;;;1.20;;
15833;SDS011;8017;50.812;4.934;2022-09-09T17:15:44;2.60;;;1.03;;
15833;SDS011;8017;50.812;4.934;2022-09-09T17:18:46;2.70;;;1.40;;
15833;SDS011;8017;50.812;4.934;2022-09-09T17:21:48;6.30;;;1.27;;
15833;SDS011;8017;50.812;4.934;2022-09-09T17:24:50;2.47;;;0.97;;
15833;SDS011;8017;50.812;4.934;2022-09-09T17:27:52;5.00;;;1.70;;
15833;SDS011;8017;50.812;4.934;2022-09-09T17:30:55;4.13;;;1.60;;
15833;SDS011;8017;50.812;4.934;2022-09-09T17:33:57;6.10;;;2.17;;
15833;SDS011;8017;50.812;4.934;2022-09-09T17:37:00;9.53;;;2.73;;
15833;SDS011;8017;50.812;4.934;2022-09-09T17:40:02;5.17;;;2.10;;
15833;SDS011;8017;50.812;4.934;2022-09-09T17:43:04;4.07;;;1.77;;
15833;SDS011;8017;50.812;4.934;2022-09-09T17:46:08;7.87;;;1.93;;
15833;SDS011;8017;50.812;4.934;2022-09-09T17:49:12;4.73;;;1.70;;
15833;SDS011;8017;50.812;4.934;2022-09-09T17:52:15;7.77;;;2.40;;
15833;SDS011;8017;50.812;4.934;2022-09-09T17:55:17;5.83;;;2.27;;
15833;SDS011;8017;50.812;4.934;2022-09-09T17:58:18;4.50;;;1.80;;
15833;SDS011;8017;50.812;4.934;2022-09-09T18:01:23;3.00;;;1.67;;
15833;SDS011;8017;50.812;4.934;2022-09-09T18:04:26;3.40;;;1.50;;
15833;SDS011;8017;50.812;4.934;2022-09-09T18:07:28;5.83;;;2.00;;
15833;SDS011;8017;50.812;4.934;2022-09-09T18:10:30;6.17;;;1.80;;
15833;SDS011;8017;50.812;4.934;2022-09-09T18:13:32;3.60;;;1.50;;
15833;SDS011;8017;50.812;4.934;2022-09-09T18:16:36;7.60;;;1.83;;
15833;SDS011;8017;50.812;4.934;2022-09-09T18:19:38;5.30;;;1.97;;
15833;SDS011;8017;50.812;4.934;2022-09-09T18:22:40;4.07;;;1.20;;
15833;SDS011;8017;50.812;4.934;2022-09-09T18:25:43;6.63;;;1.70;;
15833;SDS011;8017;50.812;4.934;2022-09-09T18:28:46;8.77;;;2.37;;
15833;SDS011;8017;50.812;4.934;2022-09-09T18:31:51;6.77;;;1.83;;
15833;SDS011;8017;50.812;4.934;2022-09-09T18:34:54;5.00;;;2.07;;
15833;SDS011;8017;50.812;4.934;2022-09-09T18:37:58;4.43;;;1.60;;
15833;SDS011;8017;50.812;4.934;2022-09-09T18:41:00;4.47;;;1.60;;
15833;SDS011;8017;50.812;4.934;2022-09-09T18:44:03;6.30;;;1.67;;
15833;SDS011;8017;50.812;4.934;2022-09-09T18:47:07;8.17;;;2.47;;
15833;SDS011;8017;50.812;4.934;2022-09-09T18:50:09;5.27;;;1.97;;
15833;SDS011;8017;50.812;4.934;2022-09-09T18:53:11;4.73;;;1.73;;
15833;SDS011;8017;50.812;4.934;2022-09-09T18:56:14;7.27;;;1.83;;
15833;SDS011;8017;50.812;4.934;2022-09-09T18:59:18;8.00;;;1.80;;